sensor_id;sensor_type;location;lat;lon;timestamp;pressure;altitude;pressure_sealevel;temperature;humidity
49827;BME280;35715;51.570;6.036;2023-06-26T00:00:16;101090.78;;;26.59;54.87
49827;BME280;35715;51.570;6.036;2023-06-26T00:02:42;101093.31;;;26.37;55.30
49827;BME280;35715;51.570;6.036;2023-06-26T00:05:08;101089.72;;;26.28;55.69
49827;BME280;35715;51.570;6.036;2023-06-26T00:07:33;101085.38;;;26.36;55.60
49827;BME280;35715;51.570;6.036;2023-06-26T00:10:03;101092.44;;;26.43;54.56
49827;BME280;35715;51.570;6.036;2023-06-26T00:12:29;101088.06;;;26.44;54.07
49827;BME280;35715;51.570;6.036;2023-06-26T00:14:55;101085.44;;;26.45;53.69
49827;BME280;35715;51.570;6.036;2023-06-26T00:17:21;101087.16;;;26.45;53.32
49827;BME280;35715;51.570;6.036;2023-06-26T00:19:47;101081.84;;;26.40;53.59
49827;BME280;35715;51.570;6.036;2023-06-26T00:22:12;101082.72;;;26.36;53.21
49827;BME280;35715;51.570;6.036;2023-06-26T00:24:38;101079.19;;;26.35;52.83
49827;BME280;35715;51.570;6.036;2023-06-26T00:27:03;101079.19;;;26.35;53.53
49827;BME280;35715;51.570;6.036;2023-06-26T00:29:34;101078.25;;;26.27;52.81
49827;BME280;35715;51.570;6.036;2023-06-26T00:32:00;101075.59;;;26.24;54.03
49827;BME280;35715;51.570;6.036;2023-06-26T00:34:25;101075.56;;;26.21;55.04
49827;BME280;35715;51.570;6.036;2023-06-26T00:36:51;101072.00;;;26.19;54.37
49827;BME280;35715;51.570;6.036;2023-06-26T00:39:18;101069.38;;;26.19;53.86
49827;BME280;35715;51.570;6.036;2023-06-26T00:41:43;101066.72;;;26.17;53.11
49827;BME280;35715;51.570;6.036;2023-06-26T00:44:08;101058.75;;;26.16;53.04
49827;BME280;35715;51.570;6.036;2023-06-26T00:46:34;101058.75;;;26.14;52.72
49827;BME280;35715;51.570;6.036;2023-06-26T00:49:02;101055.22;;;26.11;52.90
49827;BME280;35715;51.570;6.036;2023-06-26T00:51:29;101059.63;;;26.09;53.03
49827;BME280;35715;51.570;6.036;2023-06-26T00:53:54;101053.41;;;26.07;53.19
49827;BME280;35715;51.570;6.036;2023-06-26T00:56:20;101054.28;;;26.06;53.53
49827;BME280;35715;51.570;6.036;2023-06-26T00:58:46;101059.53;;;26.01;53.27
49827;BME280;35715;51.570;6.036;2023-06-26T01:01:12;101052.44;;;25.94;53.34
49827;BME280;35715;51.570;6.036;2023-06-26T01:03:45;101063.00;;;25.92;53.50
49827;BME280;35715;51.570;6.036;2023-06-26T01:06:17;101049.69;;;25.83;53.71
49827;BME280;35715;51.570;6.036;2023-06-26T01:08:43;101048.78;;;25.81;53.72
49827;BME280;35715;51.570;6.036;2023-06-26T01:11:09;101044.34;;;25.78;53.77
49827;BME280;35715;51.570;6.036;2023-06-26T01:13:35;101046.97;;;25.75;53.70
49827;BME280;35715;51.570;6.036;2023-06-26T01:16:01;101052.25;;;25.74;53.65
49827;BME280;35715;51.570;6.036;2023-06-26T01:18:28;101054.84;;;25.71;53.97
49827;BME280;35715;51.570;6.036;2023-06-26T01:20:55;101046.94;;;25.72;53.96
49827;BME280;35715;51.570;6.036;2023-06-26T01:23:29;101045.19;;;25.71;53.86
49827;BME280;35715;51.570;6.036;2023-06-26T01:26:16;101051.34;;;25.70;54.00
49827;BME280;35715;51.570;6.036;2023-06-26T01:28:43;101055.75;;;25.70;54.02
49827;BME280;35715;51.570;6.036;2023-06-26T01:31:13;101055.75;;;25.71;54.07
49827;BME280;35715;51.570;6.036;2023-06-26T01:33:40;101063.69;;;25.70;53.87
49827;BME280;35715;51.570;6.036;2023-06-26T01:36:06;101060.09;;;25.66;53.76
49827;BME280;35715;51.570;6.036;2023-06-26T01:38:32;101061.88;;;25.65;53.54
49827;BME280;35715;51.570;6.036;2023-06-26T01:40:59;101061.88;;;25.65;53.51
49827;BME280;35715;51.570;6.036;2023-06-26T01:46:15;101067.13;;;25.61;53.50
49827;BME280;35715;51.570;6.036;2023-06-26T01:49:11;101070.56;;;25.55;53.64
49827;BME280;35715;51.570;6.036;2023-06-26T01:51:42;101076.72;;;25.54;53.83
49827;BME280;35715;51.570;6.036;2023-06-26T01:54:14;101081.09;;;25.49;54.06
49827;BME280;35715;51.570;6.036;2023-06-26T01:56:45;101084.56;;;25.45;54.00
49827;BME280;35715;51.570;6.036;2023-06-26T01:59:12;101082.81;;;25.45;54.28
49827;BME280;35715;51.570;6.036;2023-06-26T02:01:39;101085.41;;;25.41;54.34
49827;BME280;35715;51.570;6.036;2023-06-26T02:04:04;101087.13;;;25.37;54.13
49827;BME280;35715;51.570;6.036;2023-06-26T02:06:30;101089.75;;;25.36;54.54
49827;BME280;35715;51.570;6.036;2023-06-26T02:08:55;101092.34;;;25.32;54.61
49827;BME280;35715;51.570;6.036;2023-06-26T02:11:22;101093.25;;;25.30;54.68
49827;BME280;35715;51.570;6.036;2023-06-26T02:13:47;101100.16;;;25.25;54.89
49827;BME280;35715;51.570;6.036;2023-06-26T02:16:13;101102.72;;;25.15;54.93
49827;BME280;35715;51.570;6.036;2023-06-26T02:18:38;101105.31;;;25.12;54.88
49827;BME280;35715;51.570;6.036;2023-06-26T02:21:04;101100.84;;;25.07;54.88
49827;BME280;35715;51.570;6.036;2023-06-26T02:23:31;101101.63;;;25.00;54.50
49827;BME280;35715;51.570;6.036;2023-06-26T02:25:56;101105.94;;;24.91;54.41
49827;BME280;35715;51.570;6.036;2023-06-26T02:28:22;101112.03;;;24.87;54.44
49827;BME280;35715;51.570;6.036;2023-06-26T02:30:49;101112.88;;;24.83;54.10
49827;BME280;35715;51.570;6.036;2023-06-26T02:33:14;101107.53;;;24.78;54.11
49827;BME280;35715;51.570;6.036;2023-06-26T02:35:40;101113.66;;;24.76;53.89
49827;BME280;35715;51.570;6.036;2023-06-26T02:38:05;101117.97;;;24.72;53.67
49827;BME280;35715;51.570;6.036;2023-06-26T02:40:35;101128.44;;;24.66;53.92
49827;BME280;35715;51.570;6.036;2023-06-26T02:43:00;101130.16;;;24.61;53.82
49827;BME280;35715;51.570;6.036;2023-06-26T02:45:25;101130.09;;;24.58;53.87
49827;BME280;35715;51.570;6.036;2023-06-26T02:47:51;101127.41;;;24.56;53.94
49827;BME280;35715;51.570;6.036;2023-06-26T02:50:18;101127.41;;;24.55;53.93
49827;BME280;35715;51.570;6.036;2023-06-26T02:52:44;101128.25;;;24.54;54.06
49827;BME280;35715;51.570;6.036;2023-06-26T02:55:09;101130.88;;;24.54;54.12
49827;BME280;35715;51.570;6.036;2023-06-26T02:57:35;101129.00;;;24.45;54.69
49827;BME280;35715;51.570;6.036;2023-06-26T03:00:00;101128.91;;;24.40;54.64
49827;BME280;35715;51.570;6.036;2023-06-26T03:02:25;101134.25;;;24.45;54.66
49827;BME280;35715;51.570;6.036;2023-06-26T03:04:52;101135.09;;;24.41;54.67
49827;BME280;35715;51.570;6.036;2023-06-26T03:07:18;101142.09;;;24.39;54.59
49827;BME280;35715;51.570;6.036;2023-06-26T03:09:44;101138.53;;;24.35;54.66
49827;BME280;35715;51.570;6.036;2023-06-26T03:12:09;101149.84;;;24.30;54.64
49827;BME280;35715;51.570;6.036;2023-06-26T03:14:35;101150.78;;;24.32;54.59
49827;BME280;35715;51.570;6.036;2023-06-26T03:17:00;101157.75;;;24.28;54.66
49827;BME280;35715;51.570;6.036;2023-06-26T03:19:31;101168.25;;;24.26;54.59
49827;BME280;35715;51.570;6.036;2023-06-26T03:21:56;101155.09;;;24.26;54.81
49827;BME280;35715;51.570;6.036;2023-06-26T03:24:22;101162.94;;;24.23;54.70
49827;BME280;35715;51.570;6.036;2023-06-26T03:26:47;101176.16;;;24.25;54.98
49827;BME280;35715;51.570;6.036;2023-06-26T03:29:13;101169.19;;;24.27;54.78
49827;BME280;35715;51.570;6.036;2023-06-26T03:31:38;101165.59;;;24.25;54.89
49827;BME280;35715;51.570;6.036;2023-06-26T03:34:03;101168.13;;;24.17;55.40
49827;BME280;35715;51.570;6.036;2023-06-26T03:36:29;101167.97;;;24.08;55.26
49827;BME280;35715;51.570;6.036;2023-06-26T03:38:54;101175.00;;;24.07;55.90
49827;BME280;35715;51.570;6.036;2023-06-26T03:41:22;101172.25;;;24.01;55.57
49827;BME280;35715;51.570;6.036;2023-06-26T03:43:48;101172.28;;;24.03;55.77
49827;BME280;35715;51.570;6.036;2023-06-26T03:46:15;101176.63;;;24.01;55.71
49827;BME280;35715;51.570;6.036;2023-06-26T03:48:40;101185.47;;;24.03;55.81
49827;BME280;35715;51.570;6.036;2023-06-26T03:51:07;101185.41;;;24.00;56.08
49827;BME280;35715;51.570;6.036;2023-06-26T03:53:33;101181.84;;;23.99;56.01
49827;BME280;35715;51.570;6.036;2023-06-26T03:55:58;101187.81;;;23.89;55.99
49827;BME280;35715;51.570;6.036;2023-06-26T03:58:24;101188.66;;;23.86;56.21
49827;BME280;35715;51.570;6.036;2023-06-26T04:00:51;101196.59;;;23.88;55.90
49827;BME280;35715;51.570;6.036;2023-06-26T04:03:17;101189.56;;;23.87;56.04
49827;BME280;35715;51.570;6.036;2023-06-26T04:05:42;101193.78;;;23.80;56.02
49827;BME280;35715;51.570;6.036;2023-06-26T04:08:08;101192.84;;;23.78;56.01
49827;BME280;35715;51.570;6.036;2023-06-26T04:10:40;101196.34;;;23.76;56.35
49827;BME280;35715;51.570;6.036;2023-06-26T04:13:06;101191.13;;;23.79;55.83
49827;BME280;35715;51.570;6.036;2023-06-26T04:15:31;101192.81;;;23.77;55.84
49827;BME280;35715;51.570;6.036;2023-06-26T04:17:57;101192.03;;;23.81;56.24
49827;BME280;35715;51.570;6.036;2023-06-26T04:20:22;101199.03;;;23.79;55.92
49827;BME280;35715;51.570;6.036;2023-06-26T04:22:47;101195.56;;;23.81;55.99
49827;BME280;35715;51.570;6.036;2023-06-26T04:25:13;101197.38;;;23.84;55.76
49827;BME280;35715;51.570;6.036;2023-06-26T04:27:38;101203.59;;;23.87;56.08
49827;BME280;35715;51.570;6.036;2023-06-26T04:30:04;101203.47;;;23.83;55.78
49827;BME280;35715;51.570;6.036;2023-06-26T04:32:30;101206.97;;;23.80;56.28
49827;BME280;35715;51.570;6.036;2023-06-26T04:34:55;101206.91;;;23.77;56.29
49827;BME280;35715;51.570;6.036;2023-06-26T04:37:22;101214.75;;;23.74;56.60
49827;BME280;35715;51.570;6.036;2023-06-26T04:39:47;101217.38;;;23.72;56.74
49827;BME280;35715;51.570;6.036;2023-06-26T04:42:13;101211.84;;;23.62;57.24
49827;BME280;35715;51.570;6.036;2023-06-26T04:44:38;101216.91;;;23.51;57.70
49827;BME280;35715;51.570;6.036;2023-06-26T04:47:05;101232.66;;;23.48;58.15
49827;BME280;35715;51.570;6.036;2023-06-26T04:49:32;101230.81;;;23.44;58.32
49827;BME280;35715;51.570;6.036;2023-06-26T04:51:57;101239.50;;;23.38;59.07
49827;BME280;35715;51.570;6.036;2023-06-26T04:54:25;101242.88;;;23.32;59.02
49827;BME280;35715;51.570;6.036;2023-06-26T04:56:51;101241.03;;;23.30;59.37
49827;BME280;35715;51.570;6.036;2023-06-26T04:59:17;101240.28;;;23.34;59.49
49827;BME280;35715;51.570;6.036;2023-06-26T05:01:42;101234.94;;;23.31;59.53
49827;BME280;35715;51.570;6.036;2023-06-26T05:04:13;101234.00;;;23.27;59.87
49827;BME280;35715;51.570;6.036;2023-06-26T05:06:39;101238.41;;;23.30;60.07
49827;BME280;35715;51.570;6.036;2023-06-26T05:09:05;101232.16;;;23.25;60.10
49827;BME280;35715;51.570;6.036;2023-06-26T05:11:30;101237.56;;;23.31;60.60
49827;BME280;35715;51.570;6.036;2023-06-26T05:13:55;101242.06;;;23.35;60.64
49827;BME280;35715;51.570;6.036;2023-06-26T05:16:21;101246.47;;;23.37;60.71
49827;BME280;35715;51.570;6.036;2023-06-26T05:18:46;101242.94;;;23.35;61.28
49827;BME280;35715;51.570;6.036;2023-06-26T05:21:12;101245.47;;;23.31;61.13
49827;BME280;35715;51.570;6.036;2023-06-26T05:23:37;101240.97;;;23.27;61.63
49827;BME280;35715;51.570;6.036;2023-06-26T05:26:03;101242.06;;;23.35;61.59
49827;BME280;35715;51.570;6.036;2023-06-26T05:28:29;101251.94;;;23.45;61.55
49827;BME280;35715;51.570;6.036;2023-06-26T05:30:57;101257.13;;;23.44;62.06
49827;BME280;35715;51.570;6.036;2023-06-26T05:33:24;101254.44;;;23.41;62.06
49827;BME280;35715;51.570;6.036;2023-06-26T05:35:54;101248.19;;;23.35;62.21
49827;BME280;35715;51.570;6.036;2023-06-26T05:38:19;101248.81;;;23.24;62.76
49827;BME280;35715;51.570;6.036;2023-06-26T05:40:45;101254.31;;;23.34;62.56
49827;BME280;35715;51.570;6.036;2023-06-26T05:43:13;101250.91;;;23.38;62.83
49827;BME280;35715;51.570;6.036;2023-06-26T05:45:38;101258.78;;;23.38;62.72
49827;BME280;35715;51.570;6.036;2023-06-26T05:48:04;101272.88;;;23.41;62.91
49827;BME280;35715;51.570;6.036;2023-06-26T05:50:30;101264.19;;;23.45;62.85
49827;BME280;35715;51.570;6.036;2023-06-26T05:52:55;101264.41;;;23.55;62.64
49827;BME280;35715;51.570;6.036;2023-06-26T05:55:21;101272.34;;;23.57;62.64
49827;BME280;35715;51.570;6.036;2023-06-26T05:57:47;101276.78;;;23.58;62.84
49827;BME280;35715;51.570;6.036;2023-06-26T06:00:13;101284.78;;;23.63;62.83
49827;BME280;35715;51.570;6.036;2023-06-26T06:02:39;101285.78;;;23.69;62.75
49827;BME280;35715;51.570;6.036;2023-06-26T06:05:07;101302.88;;;23.87;62.66
49827;BME280;35715;51.570;6.036;2023-06-26T06:07:33;101292.41;;;23.91;61.59
49827;BME280;35715;51.570;6.036;2023-06-26T06:10:01;101297.41;;;23.79;61.52
49827;BME280;35715;51.570;6.036;2023-06-26T06:12:27;101300.81;;;23.73;61.64
49827;BME280;35715;51.570;6.036;2023-06-26T06:14:52;101301.81;;;23.79;61.52
49827;BME280;35715;51.570;6.036;2023-06-26T06:17:19;101302.94;;;23.90;61.16
49827;BME280;35715;51.570;6.036;2023-06-26T06:19:45;101305.34;;;24.23;60.37
49827;BME280;35715;51.570;6.036;2023-06-26T06:22:11;101307.81;;;24.61;59.90
49827;BME280;35715;51.570;6.036;2023-06-26T06:24:36;101310.09;;;24.93;58.74
49827;BME280;35715;51.570;6.036;2023-06-26T06:27:01;101319.22;;;25.14;58.10
49827;BME280;35715;51.570;6.036;2023-06-26T06:29:29;101319.47;;;25.29;57.60
49827;BME280;35715;51.570;6.036;2023-06-26T06:31:56;101325.16;;;25.56;56.75
49827;BME280;35715;51.570;6.036;2023-06-26T06:34:21;101330.00;;;25.89;55.70
49827;BME280;35715;51.570;6.036;2023-06-26T06:36:47;101338.28;;;26.18;55.01
49827;BME280;35715;51.570;6.036;2023-06-26T06:39:13;101342.97;;;26.44;54.29
49827;BME280;35715;51.570;6.036;2023-06-26T06:41:39;101349.34;;;26.63;52.83
49827;BME280;35715;51.570;6.036;2023-06-26T06:44:04;101339.97;;;27.02;52.15
49827;BME280;35715;51.570;6.036;2023-06-26T06:46:30;101348.06;;;27.19;51.18
49827;BME280;35715;51.570;6.036;2023-06-26T06:48:55;101354.38;;;27.35;50.54
49827;BME280;35715;51.570;6.036;2023-06-26T06:51:21;101343.91;;;27.61;49.46
49827;BME280;35715;51.570;6.036;2023-06-26T06:53:47;101348.56;;;27.96;48.27
49827;BME280;35715;51.570;6.036;2023-06-26T06:56:12;101345.06;;;28.16;46.94
49827;BME280;35715;51.570;6.036;2023-06-26T06:58:38;101350.50;;;28.64;46.12
49827;BME280;35715;51.570;6.036;2023-06-26T07:01:17;101341.66;;;28.99;44.56
49827;BME280;35715;51.570;6.036;2023-06-26T07:03:42;101347.88;;;29.24;45.11
49827;BME280;35715;51.570;6.036;2023-06-26T07:06:07;101353.16;;;29.27;44.87
49827;BME280;35715;51.570;6.036;2023-06-26T07:08:33;101358.47;;;29.30;44.38
49827;BME280;35715;51.570;6.036;2023-06-26T07:11:06;101362.91;;;29.30;43.72
49827;BME280;35715;51.570;6.036;2023-06-26T07:13:32;101368.16;;;29.64;43.87
49827;BME280;35715;51.570;6.036;2023-06-26T07:15:57;101379.66;;;29.67;42.65
49827;BME280;35715;51.570;6.036;2023-06-26T07:18:22;101371.69;;;29.66;42.64
49827;BME280;35715;51.570;6.036;2023-06-26T07:20:48;101367.22;;;29.74;41.64
49827;BME280;35715;51.570;6.036;2023-06-26T07:23:13;101376.09;;;29.74;41.07
49827;BME280;35715;51.570;6.036;2023-06-26T07:25:38;101383.25;;;29.46;41.55
49827;BME280;35715;51.570;6.036;2023-06-26T07:28:10;101390.28;;;29.78;41.03
49827;BME280;35715;51.570;6.036;2023-06-26T07:30:44;101400.91;;;29.92;40.17
49827;BME280;35715;51.570;6.036;2023-06-26T07:33:09;101403.66;;;29.38;41.93
49827;BME280;35715;51.570;6.036;2023-06-26T07:35:35;101404.53;;;29.00;42.00
49827;BME280;35715;51.570;6.036;2023-06-26T07:38:00;101412.50;;;28.84;42.11
49827;BME280;35715;51.570;6.036;2023-06-26T07:40:28;101402.69;;;28.51;42.87
49827;BME280;35715;51.570;6.036;2023-06-26T07:42:53;101405.31;;;28.46;43.65
49827;BME280;35715;51.570;6.036;2023-06-26T07:45:19;101410.69;;;28.70;42.74
49827;BME280;35715;51.570;6.036;2023-06-26T07:47:45;101419.56;;;28.79;43.33
49827;BME280;35715;51.570;6.036;2023-06-26T07:50:11;101417.81;;;28.91;43.39
49827;BME280;35715;51.570;6.036;2023-06-26T07:52:36;101415.88;;;28.34;43.56
49827;BME280;35715;51.570;6.036;2023-06-26T07:55:02;101422.88;;;28.06;44.68
49827;BME280;35715;51.570;6.036;2023-06-26T07:57:29;101416.53;;;27.84;44.75
49827;BME280;35715;51.570;6.036;2023-06-26T07:59:55;101420.06;;;27.90;44.50
49827;BME280;35715;51.570;6.036;2023-06-26T08:02:21;101422.09;;;28.36;43.40
49827;BME280;35715;51.570;6.036;2023-06-26T08:04:46;101429.31;;;29.00;43.27
49827;BME280;35715;51.570;6.036;2023-06-26T08:07:12;101426.59;;;30.04;40.92
49827;BME280;35715;51.570;6.036;2023-06-26T08:09:40;101426.63;;;29.82;41.51
49827;BME280;35715;51.570;6.036;2023-06-26T08:12:05;101427.56;;;29.53;41.76
49827;BME280;35715;51.570;6.036;2023-06-26T08:14:31;101434.63;;;29.10;42.83
49827;BME280;35715;51.570;6.036;2023-06-26T08:16:57;101437.31;;;29.59;41.75
49827;BME280;35715;51.570;6.036;2023-06-26T08:19:24;101434.16;;;30.86;40.35
49827;BME280;35715;51.570;6.036;2023-06-26T08:21:49;101438.00;;;30.27;40.11
49827;BME280;35715;51.570;6.036;2023-06-26T08:24:15;101438.22;;;29.38;40.92
49827;BME280;35715;51.570;6.036;2023-06-26T08:26:45;101431.09;;;28.81;41.31
49827;BME280;35715;51.570;6.036;2023-06-26T08:29:19;101433.63;;;30.14;39.72
49827;BME280;35715;51.570;6.036;2023-06-26T08:31:44;101444.69;;;31.07;38.65
49827;BME280;35715;51.570;6.036;2023-06-26T08:34:09;101438.56;;;31.91;37.49
49827;BME280;35715;51.570;6.036;2023-06-26T08:36:35;101444.34;;;31.44;36.99
49827;BME280;35715;51.570;6.036;2023-06-26T08:39:00;101437.03;;;32.43;36.04
49827;BME280;35715;51.570;6.036;2023-06-26T08:41:26;101439.56;;;33.13;35.23
49827;BME280;35715;51.570;6.036;2023-06-26T08:43:52;101428.13;;;33.56;34.41
49827;BME280;35715;51.570;6.036;2023-06-26T08:46:18;101445.13;;;32.38;35.60
49827;BME280;35715;51.570;6.036;2023-06-26T08:48:56;101448.63;;;31.65;36.65
49827;BME280;35715;51.570;6.036;2023-06-26T08:51:24;101441.78;;;32.87;35.29
49827;BME280;35715;51.570;6.036;2023-06-26T08:53:59;101446.09;;;33.96;33.89
49827;BME280;35715;51.570;6.036;2023-06-26T08:56:31;101455.41;;;33.28;34.10
49827;BME280;35715;51.570;6.036;2023-06-26T08:58:57;101454.94;;;31.52;36.30
49827;BME280;35715;51.570;6.036;2023-06-26T09:01:24;101451.88;;;31.94;35.95
49827;BME280;35715;51.570;6.036;2023-06-26T09:03:50;101459.34;;;31.59;36.13
49827;BME280;35715;51.570;6.036;2023-06-26T09:06:16;101471.56;;;30.64;37.87
49827;BME280;35715;51.570;6.036;2023-06-26T09:08:43;101480.75;;;29.83;38.39
49827;BME280;35715;51.570;6.036;2023-06-26T09:11:10;101481.63;;;29.42;38.95
49827;BME280;35715;51.570;6.036;2023-06-26T09:13:36;101481.09;;;31.10;37.49
49827;BME280;35715;51.570;6.036;2023-06-26T09:16:08;101490.03;;;31.04;35.63
49827;BME280;35715;51.570;6.036;2023-06-26T09:18:34;101485.03;;;30.29;37.00
49827;BME280;35715;51.570;6.036;2023-06-26T09:21:00;101487.84;;;31.53;35.94
49827;BME280;35715;51.570;6.036;2023-06-26T09:23:31;101491.16;;;32.59;33.04
49827;BME280;35715;51.570;6.036;2023-06-26T09:25:56;101493.28;;;32.97;30.00
49827;BME280;35715;51.570;6.036;2023-06-26T09:28:22;101498.31;;;33.17;29.13
49827;BME280;35715;51.570;6.036;2023-06-26T09:30:48;101498.75;;;33.47;28.03
49827;BME280;35715;51.570;6.036;2023-06-26T09:33:17;101499.72;;;33.93;27.31
49827;BME280;35715;51.570;6.036;2023-06-26T09:35:47;101507.13;;;34.27;27.23
49827;BME280;35715;51.570;6.036;2023-06-26T09:38:13;101501.59;;;34.35;27.12
49827;BME280;35715;51.570;6.036;2023-06-26T09:40:44;101502.38;;;34.40;27.09
49827;BME280;35715;51.570;6.036;2023-06-26T09:43:13;101513.06;;;34.83;27.25
49827;BME280;35715;51.570;6.036;2023-06-26T09:45:39;101505.72;;;34.07;27.55
49827;BME280;35715;51.570;6.036;2023-06-26T09:48:05;101508.16;;;34.18;27.64
49827;BME280;35715;51.570;6.036;2023-06-26T09:50:34;101510.50;;;34.37;27.27
49827;BME280;35715;51.570;6.036;2023-06-26T09:53:13;101519.50;;;34.73;26.06
49827;BME280;35715;51.570;6.036;2023-06-26T09:55:39;101507.50;;;34.51;26.89
49827;BME280;35715;51.570;6.036;2023-06-26T09:58:10;101527.88;;;33.64;28.04
49827;BME280;35715;51.570;6.036;2023-06-26T10:00:40;101527.56;;;34.33;27.89
49827;BME280;35715;51.570;6.036;2023-06-26T10:03:05;101535.88;;;33.66;27.99
49827;BME280;35715;51.570;6.036;2023-06-26T10:05:31;101534.69;;;33.31;28.09
49827;BME280;35715;51.570;6.036;2023-06-26T10:07:57;101538.47;;;33.70;27.50
49827;BME280;35715;51.570;6.036;2023-06-26T10:10:27;101530.28;;;34.31;26.91
49827;BME280;35715;51.570;6.036;2023-06-26T10:12:59;101535.00;;;34.60;26.12
49827;BME280;35715;51.570;6.036;2023-06-26T10:15:26;101544.25;;;34.88;26.02
49827;BME280;35715;51.570;6.036;2023-06-26T10:17:55;101525.91;;;35.08;25.59
49827;BME280;35715;51.570;6.036;2023-06-26T10:20:21;101539.78;;;35.27;25.37
49827;BME280;35715;51.570;6.036;2023-06-26T10:22:47;101533.31;;;35.36;24.55
49827;BME280;35715;51.570;6.036;2023-06-26T10:25:19;101540.88;;;35.17;24.63
49827;BME280;35715;51.570;6.036;2023-06-26T10:27:54;101544.81;;;35.77;23.29
49827;BME280;35715;51.570;6.036;2023-06-26T10:30:25;101547.44;;;35.79;22.69
49827;BME280;35715;51.570;6.036;2023-06-26T10:32:52;101539.13;;;36.21;23.19
49827;BME280;35715;51.570;6.036;2023-06-26T10:35:18;101548.78;;;36.59;23.62
49827;BME280;35715;51.570;6.036;2023-06-26T10:37:45;101558.69;;;36.89;24.02
49827;BME280;35715;51.570;6.036;2023-06-26T10:40:24;101556.03;;;36.87;22.27
49827;BME280;35715;51.570;6.036;2023-06-26T10:42:50;101556.44;;;36.44;21.07
49827;BME280;35715;51.570;6.036;2023-06-26T10:45:19;101561.28;;;36.92;22.03
49827;BME280;35715;51.570;6.036;2023-06-26T10:47:49;101556.16;;;36.20;21.31
49827;BME280;35715;51.570;6.036;2023-06-26T10:55:42;101565.84;;;36.27;21.96
49827;BME280;35715;51.570;6.036;2023-06-26T10:58:33;101563.72;;;36.40;21.44
49827;BME280;35715;51.570;6.036;2023-06-26T11:01:19;101581.22;;;36.53;21.57
49827;BME280;35715;51.570;6.036;2023-06-26T11:06:29;101582.72;;;36.64;21.75
49827;BME280;35715;51.570;6.036;2023-06-26T11:09:06;101574.63;;;36.95;20.95
49827;BME280;35715;51.570;6.036;2023-06-26T11:14:17;101568.44;;;37.20;21.26
49827;BME280;35715;51.570;6.036;2023-06-26T11:16:43;101577.97;;;37.32;19.50
49827;BME280;35715;51.570;6.036;2023-06-26T11:19:09;101580.72;;;37.00;19.45
49827;BME280;35715;51.570;6.036;2023-06-26T11:21:37;101575.25;;;36.75;19.71
49827;BME280;35715;51.570;6.036;2023-06-26T11:24:04;101578.44;;;36.56;20.47
49827;BME280;35715;51.570;6.036;2023-06-26T11:26:31;101594.94;;;36.44;20.41
49827;BME280;35715;51.570;6.036;2023-06-26T11:29:12;101608.00;;;35.54;20.51
49827;BME280;35715;51.570;6.036;2023-06-26T11:31:39;101605.56;;;34.61;21.58
49827;BME280;35715;51.570;6.036;2023-06-26T11:34:10;101608.25;;;34.61;22.20
49827;BME280;35715;51.570;6.036;2023-06-26T11:36:41;101600.22;;;35.03;21.89
49827;BME280;35715;51.570;6.036;2023-06-26T11:39:11;101604.22;;;35.24;23.07
49827;BME280;35715;51.570;6.036;2023-06-26T11:41:39;101612.22;;;35.65;21.49
49827;BME280;35715;51.570;6.036;2023-06-26T11:44:08;101621.44;;;35.91;21.97
49827;BME280;35715;51.570;6.036;2023-06-26T11:46:34;101623.13;;;36.29;21.64
49827;BME280;35715;51.570;6.036;2023-06-26T11:49:06;101611.06;;;36.44;21.72
49827;BME280;35715;51.570;6.036;2023-06-26T11:51:32;101628.06;;;36.46;21.00
49827;BME280;35715;51.570;6.036;2023-06-26T11:54:01;101630.94;;;35.30;21.27
49827;BME280;35715;51.570;6.036;2023-06-26T11:56:28;101646.25;;;35.64;21.55
49827;BME280;35715;51.570;6.036;2023-06-26T11:59:12;101626.44;;;35.68;20.40
49827;BME280;35715;51.570;6.036;2023-06-26T12:01:38;101633.47;;;35.36;20.97
49827;BME280;35715;51.570;6.036;2023-06-26T12:04:06;101640.03;;;34.36;21.26
49827;BME280;35715;51.570;6.036;2023-06-26T12:06:34;101652.50;;;34.37;22.14
49827;BME280;35715;51.570;6.036;2023-06-26T12:09:06;101651.47;;;34.44;22.51
49827;BME280;35715;51.570;6.036;2023-06-26T12:11:33;101651.34;;;34.00;21.84
49827;BME280;35715;51.570;6.036;2023-06-26T12:13:59;101659.97;;;33.63;22.43
49827;BME280;35715;51.570;6.036;2023-06-26T12:16:27;101669.50;;;33.83;22.70
49827;BME280;35715;51.570;6.036;2023-06-26T12:19:02;101673.94;;;33.82;22.08
49827;BME280;35715;51.570;6.036;2023-06-26T12:24:04;101676.38;;;34.49;22.69
49827;BME280;35715;51.570;6.036;2023-06-26T12:26:29;101664.38;;;34.69;22.45
49827;BME280;35715;51.570;6.036;2023-06-26T12:29:05;101673.19;;;34.75;22.10
49827;BME280;35715;51.570;6.036;2023-06-26T12:31:31;101666.41;;;34.07;22.83
49827;BME280;35715;51.570;6.036;2023-06-26T12:33:57;101668.25;;;33.46;23.55
49827;BME280;35715;51.570;6.036;2023-06-26T12:36:23;101664.91;;;33.30;23.95
49827;BME280;35715;51.570;6.036;2023-06-26T12:38:49;101671.50;;;33.00;24.34
49827;BME280;35715;51.570;6.036;2023-06-26T12:41:18;101676.28;;;32.73;25.04
49827;BME280;35715;51.570;6.036;2023-06-26T12:43:45;101679.22;;;32.45;25.27
49827;BME280;35715;51.570;6.036;2023-06-26T12:46:11;101675.66;;;32.48;25.38
49827;BME280;35715;51.570;6.036;2023-06-26T12:48:44;101681.28;;;32.14;25.55
49827;BME280;35715;51.570;6.036;2023-06-26T12:51:16;101674.88;;;32.35;24.16
49827;BME280;35715;51.570;6.036;2023-06-26T12:53:42;101665.69;;;32.61;23.46
49827;BME280;35715;51.570;6.036;2023-06-26T12:56:09;101666.91;;;33.10;23.82
49827;BME280;35715;51.570;6.036;2023-06-26T12:58:36;101666.69;;;33.31;24.03
49827;BME280;35715;51.570;6.036;2023-06-26T13:01:11;101667.19;;;32.88;22.82
49827;BME280;35715;51.570;6.036;2023-06-26T13:03:39;101667.34;;;32.76;23.91
49827;BME280;35715;51.570;6.036;2023-06-26T13:06:05;101672.75;;;32.71;22.90